Time;durP1;ratioP1;P1;durP2;ratioP2;P2;SDS_P1;SDS_P2;PMS_P1;PMS_P2;Temp;Humidity;BMP_temperature;BMP_pressure;BME280_temperature;BME280_humidity;BME280_pressure;Samples;Min_cycle;Max_cycle;Signal;HPM_P1;HPM_P2
2021/10/19 00:01:21;;;;;;;;;;;;;;;;;;5063232;28;19905;-69
2021/10/19 00:03:46;;;;;;;;;;;;;;;;;;5064897;28;19927;-69
2021/10/19 00:06:12;;;;;;;;;;;;;;;;;;5089168;28;19908;-69
2021/10/19 00:08:37;;;;;;;;;;;;;;;;;;5071927;28;19932;-70
2021/10/19 00:11:02;;;;;;;;;;;;;;;;;;5071406;28;19901;-70
2021/10/19 00:13:27;;;;;;;;;;;;;;;;;;5075248;28;19905;-71
2021/10/19 00:15:53;;;;;;;;;;;;;;;;;;5064641;28;19923;-69
2021/10/19 00:18:18;;;;;;;;;;;;;;;;;;5063321;28;19928;-69
2021/10/19 00:20:43;;;;;;;;;;;;;;;;;;5073285;28;19901;-70
2021/10/19 00:23:08;;;;;;;;;;;;;;;;;;5068155;28;19901;-70
2021/10/19 00:25:34;;;;;;;;;;;;;;;;;;5063590;28;20071;-69
2021/10/19 00:27:59;;;;;;;;;;;;;;;;;;5070333;28;19905;-69
2021/10/19 00:30:24;;;;;;;;;;;;;;;;;;5067286;28;19936;-69
2021/10/19 00:32:50;;;;;;;;;;;;;;;;;;5064469;28;19900;-70
2021/10/19 00:35:15;;;;;;;;;;;;;;;;;;5065503;28;19908;-69
2021/10/19 00:37:40;;;;;;;;;;;;;;;;;;5063319;28;19901;-69
2021/10/19 00:40:06;;;;;;;;;;;;;;;;;;5062382;28;19902;-69
2021/10/19 00:42:31;;;;;;;;;;;;;;;;;;5065011;28;19897;-69
2021/10/19 00:44:56;;;;;;;;;;;;;;;;;;5063767;28;19901;-70
2021/10/19 00:47:23;;;;;;;;;;;;;;;;;;5068942;28;19932;-69
2021/10/19 00:49:48;;;;;;;;;;;;;;;;;;5065237;28;19989;-69
2021/10/19 00:52:13;;;;;;;;;;;;;;;;;;5063046;28;19916;-69
2021/10/19 00:54:38;;;;;;;;;;;;;;;;;;5073096;28;19952;-69
2021/10/19 00:57:04;;;;;;;;;;;;;;;;;;5073623;28;19906;-69
2021/10/19 00:59:30;;;;;;;;;;;;;;;;;;5068447;28;19897;-69
2021/10/19 01:01:55;;;;;;;;;;;;;;;;;;5066106;28;19905;-70
2021/10/19 01:04:20;;;;;;;;;;;;;;;;;;5072900;28;19963;-69
2021/10/19 01:06:46;;;;;;;;;;;;;;;;;;5067327;28;19902;-70
2021/10/19 01:09:11;;;;;;;;;;;;;;;;;;5063800;28;19901;-69
2021/10/19 01:11:36;;;;;;;;;;;;;;;;;;5062162;28;19908;-70
2021/10/19 01:14:02;;;;;;;;;;;;;;;;;;5062879;28;19905;-70
2021/10/19 01:16:27;;;;;;;;;;;;;;;;;;5064654;28;19912;-70
2021/10/19 01:18:52;;;;;;;;;;;;;;;;;;5061418;28;19976;-71
2021/10/19 01:21:18;;;;;;;;;;;;;;;;;;5064182;28;19913;-70
2021/10/19 01:23:43;;;;;;;;;;;;;;;;;;5062720;28;19905;-69
2021/10/19 01:26:09;;;;;;;;;;;;;;;;;;5065734;28;19912;-69
2021/10/19 01:28:34;;;;;;;;;;;;;;;;;;5064062;28;19905;-70
2021/10/19 01:30:59;;;;;;;;;;;;;;;;;;5072717;28;19924;-69
2021/10/19 01:33:24;;;;;;;;;;;;;;;;;;5073756;28;19966;-70
2021/10/19 01:35:50;;;;;;;;;;;;;;;;;;5063561;28;19913;-69
2021/10/19 01:38:15;;;;;;;;;;;;;;;;;;5066969;28;19936;-69
2021/10/19 01:40:40;;;;;;;;;;;;;;;;;;5064905;28;19901;-69
2021/10/19 01:43:05;;;;;;;;;;;;;;;;;;5062540;28;19898;-70
2021/10/19 01:45:31;;;;;;;;;;;;;;;;;;5072156;28;19901;-70
2021/10/19 01:47:56;;;;;;;;;;;;;;;;;;5066492;28;19900;-69
2021/10/19 01:50:21;;;;;;;;;;;;;;;;;;5063795;28;19958;-69
2021/10/19 01:52:46;;;;;;;;;;;;;;;;;;5065708;28;19911;-69
2021/10/19 01:55:11;;;;;;;;;;;;;;;;;;5062139;28;19905;-69
2021/10/19 01:57:37;;;;;;;;;;;;;;;;;;5071434;28;19939;-69
2021/10/19 02:00:02;;;;;;;;;;;;;;;;;;5061572;28;19992;-70
2021/10/19 02:02:36;;;;;;;;;;;;;;;;;;5066797;28;19905;-70
2021/10/19 02:05:01;;;;;;;;;;;;;;;;;;5062982;28;19992;-70
2021/10/19 02:07:26;;;;;;;;;;;;;;;;;;5064754;28;19901;-69
2021/10/19 02:09:51;;;;;;;;;;;;;;;;;;5063032;28;19904;-69
2021/10/19 02:12:16;;;;;;;;;;;;;;;;;;5073571;28;19928;-69
2021/10/19 02:14:42;;;;;;;;;;;;;;;;;;5067512;28;19912;-69
2021/10/19 02:17:07;;;;;;;;;;;;;;;;;;5065496;28;19944;-70
2021/10/19 02:19:32;;;;;;;;;;;;;;;;;;5062686;28;19935;-70
2021/10/19 02:21:57;;;;;;;;;;;;;;;;;;5066517;28;19927;-69
2021/10/19 02:24:24;;;;;;;;;;;;;;;;;;5071659;28;19969;-69
2021/10/19 02:26:49;;;;;;;;;;;;;;;;;;5064542;28;19897;-70
2021/10/19 02:29:14;;;;;;;;;;;;;;;;;;5072114;28;19912;-69
2021/10/19 02:31:39;;;;;;;;;;;;;;;;;;5062473;28;19909;-69
2021/10/19 02:34:05;;;;;;;;;;;;;;;;;;5070876;28;19932;-69
2021/10/19 02:36:32;;;;;;;;;;;;;;;;;;5062714;28;19916;-71
2021/10/19 02:38:58;;;;;;;;;;;;;;;;;;5062325;28;19935;-69
2021/10/19 02:41:23;;;;;;;;;;;;;;;;;;5063126;28;19909;-70
2021/10/19 02:43:48;;;;;;;;;;;;;;;;;;5065844;28;19911;-70
2021/10/19 02:46:13;;;;;;;;;;;;;;;;;;5063519;28;19917;-70
2021/10/19 02:48:38;;;;;;;;;;;;;;;;;;5065762;28;19919;-69
2021/10/19 02:51:04;;;;;;;;;;;;;;;;;;5071461;28;19908;-71
2021/10/19 02:53:29;;;;;;;;;;;;;;;;;;5064091;28;20102;-70
2021/10/19 02:55:54;;;;;;;;;;;;;;;;;;5069438;28;19911;-70
2021/10/19 02:58:19;;;;;;;;;;;;;;;;;;5068159;28;19905;-70
2021/10/19 03:00:44;;;;;;;;;;;;;;;;;;5073332;28;19908;-69
2021/10/19 03:03:10;;;;;;;;;;;;;;;;;;5075644;28;19904;-71
2021/10/19 03:05:35;;;;;;;;;;;;;;;;;;5066476;28;19948;-69
2021/10/19 03:08:00;;;;;;;;;;;;;;;;;;5062691;28;19912;-72
2021/10/19 03:10:25;;;;;;;;;;;;;;;;;;5066738;28;19901;-69
2021/10/19 03:12:51;;;;;;;;;;;;;;;;;;5066065;28;19933;-71
2021/10/19 03:15:19;;;;;;;;;;;;;;;;;;5066325;28;19910;-70
2021/10/19 03:17:44;;;;;;;;;;;;;;;;;;5066620;28;19912;-69
2021/10/19 03:20:10;;;;;;;;;;;;;;;;;;5074536;28;19912;-69
2021/10/19 03:22:35;;;;;;;;;;;;;;;;;;5067703;28;19901;-69
2021/10/19 03:25:00;;;;;;;;;;;;;;;;;;5066109;28;19911;-69
2021/10/19 03:27:25;;;;;;;;;;;;;;;;;;5065599;28;19979;-70
2021/10/19 03:29:50;;;;;;;;;;;;;;;;;;5067347;28;19923;-70
2021/10/19 03:32:16;;;;;;;;;;;;;;;;;;5066448;28;20162;-70
2021/10/19 03:34:41;;;;;;;;;;;;;;;;;;5074156;28;19961;-70
2021/10/19 03:37:06;;;;;;;;;;;;;;;;;;5075460;28;19913;-71
2021/10/19 03:39:31;;;;;;;;;;;;;;;;;;5074501;28;19909;-70
2021/10/19 03:41:57;;;;;;;;;;;;;;;;;;5070191;28;20061;-70
2021/10/19 03:44:22;;;;;;;;;;;;;;;;;;5065010;28;19973;-70
2021/10/19 03:46:47;;;;;;;;;;;;;;;;;;5065908;28;20027;-70
2021/10/19 03:49:12;;;;;;;;;;;;;;;;;;5067259;28;19901;-70
2021/10/19 03:51:38;;;;;;;;;;;;;;;;;;5074640;28;19909;-70
2021/10/19 03:54:03;;;;;;;;;;;;;;;;;;5064741;28;19917;-70
2021/10/19 03:56:28;;;;;;;;;;;;;;;;;;5065671;28;19901;-70
2021/10/19 03:58:53;;;;;;;;;;;;;;;;;;5067377;28;19909;-71
2021/10/19 04:01:18;;;;;;;;;;;;;;;;;;5067560;28;19919;-70
2021/10/19 04:03:44;;;;;;;;;;;;;;;;;;5073153;28;19904;-70
2021/10/19 04:06:11;;;;;;;;;;;;;;;;;;5055930;28;19901;-70
2021/10/19 04:08:38;;;;;;;;;;;;;;;;;;5071682;28;19960;-70
2021/10/19 04:11:03;;;;;;;;;;;;;;;;;;5091167;28;19936;-71
2021/10/19 04:13:28;;;;;;;;;;;;;;;;;;5066702;28;19901;-70
2021/10/19 04:15:54;;;;;;;;;;;;;;;;;;5066058;28;19927;-71
2021/10/19 04:18:19;;;;;;;;;;;;;;;;;;5066943;28;19972;-70
2021/10/19 04:20:45;;;;;;;;;;;;;;;;;;5068020;28;19909;-70
2021/10/19 04:23:10;;;;;;;;;;;;;;;;;;5069378;28;19988;-70
2021/10/19 04:25:35;;;;;;;;;;;;;;;;;;5068510;28;19960;-70
2021/10/19 04:28:00;;;;;;;;;;;;;;;;;;5065117;28;19902;-70
2021/10/19 04:30:25;;;;;;;;;;;;;;;;;;5063965;28;19897;-70
2021/10/19 04:32:51;;;;;;;;;;;;;;;;;;5062580;28;20012;-70
2021/10/19 04:35:16;;;;;;;;;;;;;;;;;;5075300;28;19923;-70
2021/10/19 04:37:41;;;;;;;;;;;;;;;;;;5074784;28;19904;-70
2021/10/19 04:40:06;;;;;;;;;;;;;;;;;;5067056;28;19968;-70
2021/10/19 04:42:37;;;;;;;;;;;;;;;;;;5072928;28;19901;-70
2021/10/19 04:45:02;;;;;;;;;;;;;;;;;;5065064;28;19913;-71
2021/10/19 04:47:28;;;;;;;;;;;;;;;;;;5062770;28;19964;-70
2021/10/19 04:49:53;;;;;;;;;;;;;;;;;;5065011;28;19897;-70
2021/10/19 04:52:18;;;;;;;;;;;;;;;;;;5068946;28;19901;-70
2021/10/19 04:54:43;;;;;;;;;;;;;;;;;;5070518;28;19912;-71
2021/10/19 04:57:09;;;;;;;;;;;;;;;;;;5090527;28;19932;-70
2021/10/19 04:59:34;;;;;;;;;;;;;;;;;;5066666;28;19909;-71
2021/10/19 05:01:59;;;;;;;;;;;;;;;;;;5063600;28;20008;-70
2021/10/19 05:04:24;;;;;;;;;;;;;;;;;;5071615;28;19912;-70
2021/10/19 05:06:50;;;;;;;;;;;;;;;;;;5067290;28;19924;-70
2021/10/19 05:09:15;;;;;;;;;;;;;;;;;;5064448;28;19908;-71
2021/10/19 05:11:40;;;;;;;;;;;;;;;;;;5061862;28;19901;-71
2021/10/19 05:14:05;;;;;;;;;;;;;;;;;;5062592;28;19901;-70
2021/10/19 05:16:31;;;;;;;;;;;;;;;;;;5072454;28;19900;-70
2021/10/19 05:18:56;;;;;;;;;;;;;;;;;;5065093;28;19964;-70
2021/10/19 05:21:21;;;;;;;;;;;;;;;;;;5065404;28;19904;-70
2021/10/19 05:23:46;;;;;;;;;;;;;;;;;;5065809;28;19909;-71
2021/10/19 05:26:13;;;;;;;;;;;;;;;;;;5063155;28;19943;-70
2021/10/19 05:28:38;;;;;;;;;;;;;;;;;;5064166;28;19901;-71
2021/10/19 05:31:04;;;;;;;;;;;;;;;;;;5064243;28;19920;-70
2021/10/19 05:33:30;;;;;;;;;;;;;;;;;;5059795;28;19901;-70
2021/10/19 05:35:55;;;;;;;;;;;;;;;;;;5072281;28;19936;-71
2021/10/19 05:38:20;;;;;;;;;;;;;;;;;;5066169;28;19905;-70
2021/10/19 05:40:45;;;;;;;;;;;;;;;;;;5070961;28;19909;-70
2021/10/19 05:43:10;;;;;;;;;;;;;;;;;;5062263;28;19909;-70
2021/10/19 05:45:36;;;;;;;;;;;;;;;;;;5064607;28;19956;-70
2021/10/19 05:48:01;;;;;;;;;;;;;;;;;;5067215;28;19968;-70
2021/10/19 05:50:26;;;;;;;;;;;;;;;;;;5065185;28;19901;-71
2021/10/19 05:52:51;;;;;;;;;;;;;;;;;;5064224;28;19961;-70
2021/10/19 05:55:17;;;;;;;;;;;;;;;;;;5066469;28;19907;-70
2021/10/19 05:57:42;;;;;;;;;;;;;;;;;;5065364;28;19905;-70
2021/10/19 06:00:07;;;;;;;;;;;;;;;;;;5072062;28;19901;-71
2021/10/19 06:02:38;;;;;;;;;;;;;;;;;;5065799;28;19901;-70
2021/10/19 06:05:03;;;;;;;;;;;;;;;;;;5067159;28;19917;-74
2021/10/19 06:07:29;;;;;;;;;;;;;;;;;;5059439;28;20162;-71
2021/10/19 06:09:54;;;;;;;;;;;;;;;;;;5062183;28;19935;-74
2021/10/19 06:12:19;;;;;;;;;;;;;;;;;;5061614;28;19912;-77
2021/10/19 06:14:45;;;;;;;;;;;;;;;;;;5062797;28;19901;-72
2021/10/19 06:17:10;;;;;;;;;;;;;;;;;;5061641;28;19909;-72
2021/10/19 06:19:35;;;;;;;;;;;;;;;;;;5064741;28;19912;-72
2021/10/19 06:22:00;;;;;;;;;;;;;;;;;;5069232;28;19908;-70
2021/10/19 06:24:27;;;;;;;;;;;;;;;;;;5066086;28;19901;-70
2021/10/19 06:26:52;;;;;;;;;;;;;;;;;;5069594;28;19931;-71
2021/10/19 06:29:17;;;;;;;;;;;;;;;;;;5070010;28;19956;-71
2021/10/19 06:31:43;;;;;;;;;;;;;;;;;;5065260;28;19908;-70
2021/10/19 06:34:08;;;;;;;;;;;;;;;;;;5070093;28;19932;-71
2021/10/19 06:36:33;;;;;;;;;;;;;;;;;;5065952;28;19915;-71
2021/10/19 06:38:58;;;;;;;;;;;;;;;;;;5061844;28;19964;-71
2021/10/19 06:41:23;;;;;;;;;;;;;;;;;;5061723;28;20159;-71
2021/10/19 06:43:49;;;;;;;;;;;;;;;;;;5051824;28;20086;-71
2021/10/19 06:46:14;;;;;;;;;;;;;;;;;;5063655;28;20016;-70
2021/10/19 06:48:39;;;;;;;;;;;;;;;;;;5062495;28;19901;-71
2021/10/19 06:51:05;;;;;;;;;;;;;;;;;;5063681;28;19909;-73
2021/10/19 06:53:30;;;;;;;;;;;;;;;;;;5063324;28;19905;-73
2021/10/19 06:55:56;;;;;;;;;;;;;;;;;;5061905;28;19909;-72
2021/10/19 06:58:21;;;;;;;;;;;;;;;;;;5043945;28;19905;-71
2021/10/19 07:00:46;;;;;;;;;;;;;;;;;;5064239;28;19909;-71
2021/10/19 07:03:11;;;;;;;;;;;;;;;;;;5060317;28;19960;-72
2021/10/19 07:05:36;;;;;;;;;;;;;;;;;;5060305;28;19940;-72
2021/10/19 07:08:02;;;;;;;;;;;;;;;;;;5064248;28;19909;-72
2021/10/19 07:10:27;;;;;;;;;;;;;;;;;;5063929;28;19936;-72
2021/10/19 07:12:52;;;;;;;;;;;;;;;;;;5058183;28;19912;-72
2021/10/19 07:15:18;;;;;;;;;;;;;;;;;;5043283;28;20016;-72
2021/10/19 07:17:43;;;;;;;;;;;;;;;;;;5059404;28;19912;-71
2021/10/19 07:20:08;;;;;;;;;;;;;;;;;;5061868;28;19901;-71
2021/10/19 07:22:33;;;;;;;;;;;;;;;;;;5067542;28;20019;-72
2021/10/19 07:24:59;;;;;;;;;;;;;;;;;;5062315;28;19940;-72
2021/10/19 07:27:24;;;;;;;;;;;;;;;;;;5059413;28;19909;-72
2021/10/19 07:29:49;;;;;;;;;;;;;;;;;;5060974;28;19902;-71
2021/10/19 07:32:15;;;;;;;;;;;;;;;;;;5052163;28;19909;-72
2021/10/19 07:34:40;;;;;;;;;;;;;;;;;;5069666;28;19901;-71
2021/10/19 07:37:05;;;;;;;;;;;;;;;;;;5063463;28;19940;-71
2021/10/19 07:39:30;;;;;;;;;;;;;;;;;;5060686;28;19909;-73
2021/10/19 07:41:56;;;;;;;;;;;;;;;;;;5064437;28;19913;-72
2021/10/19 07:44:23;;;;;;;;;;;;;;;;;;5063988;28;19901;-72
2021/10/19 07:46:51;;;;;;;;;;;;;;;;;;5067662;28;19960;-70
2021/10/19 07:49:16;;;;;;;;;;;;;;;;;;5071640;28;19901;-72
2021/10/19 07:51:42;;;;;;;;;;;;;;;;;;5065876;28;19905;-73
2021/10/19 07:54:07;;;;;;;;;;;;;;;;;;5070613;28;19935;-70
2021/10/19 07:56:32;;;;;;;;;;;;;;;;;;5065248;28;19973;-69
2021/10/19 07:58:58;;;;;;;;;;;;;;;;;;5065142;28;19939;-68
2021/10/19 08:01:23;;;;;;;;;;;;;;;;;;5064053;28;19911;-71
2021/10/19 08:03:48;;;;;;;;;;;;;;;;;;5064105;28;19920;-71
2021/10/19 08:06:14;;;;;;;;;;;;;;;;;;5063862;28;19921;-71
2021/10/19 08:08:39;;;;;;;;;;;;;;;;;;5064800;28;19901;-72
2021/10/19 08:11:05;;;;;;;;;;;;;;;;;;5064386;28;19913;-71
2021/10/19 08:13:30;;;;;;;;;;;;;;;;;;5063851;28;19924;-71
2021/10/19 08:15:55;;;;;;;;;;;;;;;;;;5064630;28;19910;-71
2021/10/19 08:18:20;;;;;;;;;;;;;;;;;;5069665;28;19905;-72
2021/10/19 08:20:46;;;;;;;;;;;;;;;;;;5064650;28;19909;-71
2021/10/19 08:23:11;;;;;;;;;;;;;;;;;;5066404;28;19901;-73
2021/10/19 08:25:38;;;;;;;;;;;;;;;;;;5063637;28;19920;-72
2021/10/19 08:28:03;;;;;;;;;;;;;;;;;;5069112;28;19909;-71
2021/10/19 08:30:28;;;;;;;;;;;;;;;;;;5071345;28;19988;-72
2021/10/19 08:32:53;;;;;;;;;;;;;;;;;;5070466;28;19948;-72
2021/10/19 08:35:19;;;;;;;;;;;;;;;;;;5062584;28;19916;-72
2021/10/19 08:37:44;;;;;;;;;;;;;;;;;;5064750;28;19920;-71
2021/10/19 08:40:09;;;;;;;;;;;;;;;;;;5071935;28;19901;-71
2021/10/19 08:42:41;;;;;;;;;;;;;;;;;;5064209;28;19935;-71
2021/10/19 08:45:06;;;;;;;;;;;;;;;;;;5064114;28;19902;-71
2021/10/19 08:47:31;;;;;;;;;;;;;;;;;;5061280;28;19924;-71
2021/10/19 08:49:57;;;;;;;;;;;;;;;;;;5062626;28;20039;-72
2021/10/19 08:52:22;;;;;;;;;;;;;;;;;;5062755;28;19901;-72
2021/10/19 08:54:47;;;;;;;;;;;;;;;;;;5071574;28;19911;-70
2021/10/19 08:57:13;;;;;;;;;;;;;;;;;;5064874;28;19905;-71
2021/10/19 08:59:38;;;;;;;;;;;;;;;;;;5061061;28;20326;-71
2021/10/19 09:02:03;;;;;;;;;;;;;;;;;;5062577;28;19911;-71
2021/10/19 09:04:28;;;;;;;;;;;;;;;;;;5064146;28;19905;-73
2021/10/19 09:06:54;;;;;;;;;;;;;;;;;;5064634;28;20025;-71
2021/10/19 09:09:24;;;;;;;;;;;;;;;;;;5063420;28;19908;-71
2021/10/19 09:11:49;;;;;;;;;;;;;;;;;;5063253;28;19927;-71
2021/10/19 09:14:14;;;;;;;;;;;;;;;;;;5062803;28;19913;-72
2021/10/19 09:16:40;;;;;;;;;;;;;;;;;;5064222;28;19916;-71
2021/10/19 09:19:05;;;;;;;;;;;;;;;;;;5063038;28;19992;-72
2021/10/19 09:21:30;;;;;;;;;;;;;;;;;;5063275;28;19909;-73
2021/10/19 09:23:55;;;;;;;;;;;;;;;;;;5065347;28;19905;-72
2021/10/19 09:26:22;;;;;;;;;;;;;;;;;;5063381;28;19901;-72
2021/10/19 09:28:47;;;;;;;;;;;;;;;;;;5062165;28;19932;-72
2021/10/19 09:31:12;;;;;;;;;;;;;;;;;;5071199;28;20126;-73
2021/10/19 09:33:38;;;;;;;;;;;;;;;;;;5064855;28;19900;-72
2021/10/19 09:36:03;;;;;;;;;;;;;;;;;;5063750;28;19929;-73
2021/10/19 09:38:28;;;;;;;;;;;;;;;;;;5060821;28;19931;-73
2021/10/19 09:40:53;;;;;;;;;;;;;;;;;;5060590;28;20157;-72
2021/10/19 09:43:19;;;;;;;;;;;;;;;;;;5062510;28;19901;-72
2021/10/19 09:45:44;;;;;;;;;;;;;;;;;;5062059;28;19919;-72
2021/10/19 09:48:09;;;;;;;;;;;;;;;;;;5063656;28;19909;-73
2021/10/19 09:50:34;;;;;;;;;;;;;;;;;;5066610;28;19913;-73
2021/10/19 09:53:00;;;;;;;;;;;;;;;;;;5063260;28;19902;-73
2021/10/19 09:55:25;;;;;;;;;;;;;;;;;;5062811;28;19948;-72
2021/10/19 09:57:51;;;;;;;;;;;;;;;;;;5069813;28;19905;-71
2021/10/19 10:00:17;;;;;;;;;;;;;;;;;;5062256;28;20138;-71
2021/10/19 10:02:42;;;;;;;;;;;;;;;;;;5058187;28;19908;-72
2021/10/19 10:05:07;;;;;;;;;;;;;;;;;;5059378;28;19913;-71
2021/10/19 10:07:32;;;;;;;;;;;;;;;;;;5060542;28;19909;-71
2021/10/19 10:09:57;;;;;;;;;;;;;;;;;;5060766;28;19920;-71
2021/10/19 10:12:23;;;;;;;;;;;;;;;;;;5067770;28;19924;-72
2021/10/19 10:14:49;;;;;;;;;;;;;;;;;;5063010;28;19996;-71
2021/10/19 10:17:14;;;;;;;;;;;;;;;;;;5062620;28;20027;-71
2021/10/19 10:19:39;;;;;;;;;;;;;;;;;;5061496;28;19909;-73
2021/10/19 10:22:04;;;;;;;;;;;;;;;;;;5061050;28;19939;-72
2021/10/19 10:24:29;;;;;;;;;;;;;;;;;;5069222;28;19963;-72
2021/10/19 10:26:55;;;;;;;;;;;;;;;;;;5066297;28;19921;-72
2021/10/19 10:29:20;;;;;;;;;;;;;;;;;;5052434;28;19902;-72
2021/10/19 10:31:45;;;;;;;;;;;;;;;;;;5060684;28;19992;-72
2021/10/19 10:34:12;;;;;;;;;;;;;;;;;;5059359;28;19909;-70
2021/10/19 10:36:38;;;;;;;;;;;;;;;;;;5062045;28;19913;-71
2021/10/19 10:39:05;;;;;;;;;;;;;;;;;;5061567;28;20245;-69
2021/10/19 10:41:30;;;;;;;;;;;;;;;;;;5061882;28;19912;-71
2021/10/19 10:43:55;;;;;;;;;;;;;;;;;;5070141;28;19964;-71
2021/10/19 10:46:21;;;;;;;;;;;;;;;;;;5063443;28;19901;-70
2021/10/19 10:48:46;;;;;;;;;;;;;;;;;;5069669;28;20171;-70
2021/10/19 10:51:11;;;;;;;;;;;;;;;;;;5064190;28;19901;-70
2021/10/19 10:53:36;;;;;;;;;;;;;;;;;;5060858;28;19936;-70
2021/10/19 10:56:02;;;;;;;;;;;;;;;;;;5061754;28;19904;-70
2021/10/19 10:58:27;;;;;;;;;;;;;;;;;;5063855;28;19916;-70
2021/10/19 11:00:52;;;;;;;;;;;;;;;;;;5063791;28;19901;-72
2021/10/19 11:03:17;;;;;;;;;;;;;;;;;;5062204;28;19953;-71
2021/10/19 11:05:42;;;;;;;;;;;;;;;;;;5061114;28;19916;-68
2021/10/19 11:08:08;;;;;;;;;;;;;;;;;;5059595;28;19956;-70
2021/10/19 11:10:33;;;;;;;;;;;;;;;;;;5067857;28;19928;-70
2021/10/19 11:12:58;;;;;;;;;;;;;;;;;;5065613;28;19904;-71
2021/10/19 11:15:23;;;;;;;;;;;;;;;;;;5068126;28;19904;-72
2021/10/19 11:17:49;;;;;;;;;;;;;;;;;;5064749;28;19905;-72
2021/10/19 11:20:14;;;;;;;;;;;;;;;;;;5065552;28;19909;-70
2021/10/19 11:22:40;;;;;;;;;;;;;;;;;;5067975;28;19939;-70
2021/10/19 11:25:05;;;;;;;;;;;;;;;;;;5064739;28;19992;-70
2021/10/19 11:27:30;;;;;;;;;;;;;;;;;;5074412;28;19912;-70
2021/10/19 11:29:56;;;;;;;;;;;;;;;;;;5062658;28;19956;-72
2021/10/19 11:32:21;;;;;;;;;;;;;;;;;;5063336;28;19936;-70
2021/10/19 11:34:46;;;;;;;;;;;;;;;;;;5064316;28;19980;-71
2021/10/19 11:37:11;;;;;;;;;;;;;;;;;;5062869;28;19935;-70
2021/10/19 11:39:36;;;;;;;;;;;;;;;;;;5064603;28;19908;-71
2021/10/19 11:42:03;;;;;;;;;;;;;;;;;;5065582;28;19909;-71
2021/10/19 11:44:29;;;;;;;;;;;;;;;;;;5063282;28;20368;-70
2021/10/19 11:46:54;;;;;;;;;;;;;;;;;;5064285;28;20321;-71
2021/10/19 11:49:19;;;;;;;;;;;;;;;;;;5071797;28;19900;-71
2021/10/19 11:51:44;;;;;;;;;;;;;;;;;;5065916;28;20012;-71
2021/10/19 11:54:10;;;;;;;;;;;;;;;;;;5070312;28;19912;-71
2021/10/19 11:56:35;;;;;;;;;;;;;;;;;;5066447;28;19917;-70
2021/10/19 11:59:02;;;;;;;;;;;;;;;;;;5066222;28;19972;-68
2021/10/19 12:01:27;;;;;;;;;;;;;;;;;;5067564;28;19960;-70
2021/10/19 12:03:52;;;;;;;;;;;;;;;;;;5062955;28;19947;-71
2021/10/19 12:06:17;;;;;;;;;;;;;;;;;;5065229;28;19935;-70
2021/10/19 12:08:43;;;;;;;;;;;;;;;;;;5062684;28;19908;-70
2021/10/19 12:11:08;;;;;;;;;;;;;;;;;;5068892;28;19901;-70
2021/10/19 12:13:33;;;;;;;;;;;;;;;;;;5065535;28;19912;-71
2021/10/19 12:15:59;;;;;;;;;;;;;;;;;;5064046;28;19928;-70
2021/10/19 12:18:24;;;;;;;;;;;;;;;;;;5068113;28;20039;-70
2021/10/19 12:20:49;;;;;;;;;;;;;;;;;;5068823;28;19992;-70
2021/10/19 12:23:15;;;;;;;;;;;;;;;;;;5071161;28;20045;-70
2021/10/19 12:25:40;;;;;;;;;;;;;;;;;;5067437;28;19932;-70
2021/10/19 12:28:05;;;;;;;;;;;;;;;;;;5063723;28;19916;-73
2021/10/19 12:30:30;;;;;;;;;;;;;;;;;;5070321;28;19928;-71
2021/10/19 12:32:55;;;;;;;;;;;;;;;;;;5064771;28;19928;-70
2021/10/19 12:35:21;;;;;;;;;;;;;;;;;;5072012;28;19967;-70
2021/10/19 12:37:46;;;;;;;;;;;;;;;;;;5065825;28;19924;-70
2021/10/19 12:40:12;;;;;;;;;;;;;;;;;;5066617;28;19901;-70
2021/10/19 12:42:37;;;;;;;;;;;;;;;;;;5066748;28;19909;-71
2021/10/19 12:45:02;;;;;;;;;;;;;;;;;;5065779;28;19911;-71
2021/10/19 12:47:27;;;;;;;;;;;;;;;;;;5068402;28;19901;-70
2021/10/19 12:49:55;;;;;;;;;;;;;;;;;;5072846;28;19928;-70
2021/10/19 12:52:21;;;;;;;;;;;;;;;;;;5064454;28;19916;-70
2021/10/19 12:54:46;;;;;;;;;;;;;;;;;;5066869;28;19905;-70
2021/10/19 12:57:14;;;;;;;;;;;;;;;;;;5065083;28;19905;-70
2021/10/19 12:59:39;;;;;;;;;;;;;;;;;;5067519;28;19908;-69
2021/10/19 13:02:05;;;;;;;;;;;;;;;;;;5067071;28;20015;-69
2021/10/19 13:04:30;;;;;;;;;;;;;;;;;;5055187;28;19985;-69
2021/10/19 13:06:55;;;;;;;;;;;;;;;;;;5065504;28;19936;-70
2021/10/19 13:09:21;;;;;;;;;;;;;;;;;;5065927;28;19987;-70
2021/10/19 13:11:46;;;;;;;;;;;;;;;;;;5057214;28;19909;-71
2021/10/19 13:14:11;;;;;;;;;;;;;;;;;;5072814;28;19901;-70
2021/10/19 13:16:40;;;;;;;;;;;;;;;;;;5063560;28;19905;-70
2021/10/19 13:19:07;;;;;;;;;;;;;;;;;;5062785;28;19988;-70
2021/10/19 13:21:32;;;;;;;;;;;;;;;;;;5055754;28;20154;-71
2021/10/19 13:23:57;;;;;;;;;;;;;;;;;;5064650;28;19901;-70
2021/10/19 13:26:23;;;;;;;;;;;;;;;;;;5063703;28;19901;-70
2021/10/19 13:28:48;;;;;;;;;;;;;;;;;;5064862;28;19901;-71
2021/10/19 13:31:13;;;;;;;;;;;;;;;;;;5067091;28;19968;-71
2021/10/19 13:33:38;;;;;;;;;;;;;;;;;;5065532;28;19908;-70
2021/10/19 13:36:04;;;;;;;;;;;;;;;;;;5062407;28;19904;-70
2021/10/19 13:38:29;;;;;;;;;;;;;;;;;;5072642;28;19939;-71
2021/10/19 13:40:55;;;;;;;;;;;;;;;;;;5065379;28;19905;-70
2021/10/19 13:43:20;;;;;;;;;;;;;;;;;;5063938;28;19900;-71
2021/10/19 13:45:46;;;;;;;;;;;;;;;;;;5064781;28;19935;-70
2021/10/19 13:48:11;;;;;;;;;;;;;;;;;;5063082;28;19909;-70
2021/10/19 13:50:36;;;;;;;;;;;;;;;;;;5063789;28;19901;-70
2021/10/19 13:53:03;;;;;;;;;;;;;;;;;;5072542;28;19927;-71
2021/10/19 13:55:28;;;;;;;;;;;;;;;;;;5065826;28;19904;-73
2021/10/19 13:57:54;;;;;;;;;;;;;;;;;;5063133;28;19920;-74
2021/10/19 14:00:19;;;;;;;;;;;;;;;;;;5063734;28;19932;-73
2021/10/19 14:02:44;;;;;;;;;;;;;;;;;;5060098;28;19905;-73
2021/10/19 14:05:09;;;;;;;;;;;;;;;;;;5063080;28;19933;-74
2021/10/19 14:07:36;;;;;;;;;;;;;;;;;;5061469;28;20212;-73
2021/10/19 14:10:02;;;;;;;;;;;;;;;;;;5059858;28;19901;-73
2021/10/19 14:12:27;;;;;;;;;;;;;;;;;;5067014;28;19928;-73
2021/10/19 14:14:52;;;;;;;;;;;;;;;;;;5064947;28;19960;-73
2021/10/19 14:17:18;;;;;;;;;;;;;;;;;;5071754;28;19947;-74
2021/10/19 14:19:44;;;;;;;;;;;;;;;;;;5070887;28;19905;-73
2021/10/19 14:22:09;;;;;;;;;;;;;;;;;;5069321;28;19902;-73
2021/10/19 14:24:34;;;;;;;;;;;;;;;;;;5073157;28;19927;-73
2021/10/19 14:27:00;;;;;;;;;;;;;;;;;;5069849;28;20007;-73
2021/10/19 14:29:25;;;;;;;;;;;;;;;;;;5067157;28;19996;-74
2021/10/19 14:31:50;;;;;;;;;;;;;;;;;;5063102;28;19901;-73
2021/10/19 14:34:19;;;;;;;;;;;;;;;;;;5061003;28;19912;-70
2021/10/19 14:36:44;;;;;;;;;;;;;;;;;;5063325;28;19913;-71
2021/10/19 14:39:09;;;;;;;;;;;;;;;;;;5061417;28;19920;-70
2021/10/19 14:41:35;;;;;;;;;;;;;;;;;;5062094;28;19902;-71
2021/10/19 14:44:00;;;;;;;;;;;;;;;;;;5062007;28;19916;-71
2021/10/19 14:46:25;;;;;;;;;;;;;;;;;;5061338;28;19920;-70
2021/10/19 14:48:50;;;;;;;;;;;;;;;;;;5061514;28;19939;-70
2021/10/19 14:51:15;;;;;;;;;;;;;;;;;;5073960;28;19935;-71
2021/10/19 14:53:41;;;;;;;;;;;;;;;;;;5074617;28;20055;-70
2021/10/19 14:56:07;;;;;;;;;;;;;;;;;;5064539;28;19905;-70
2021/10/19 14:58:32;;;;;;;;;;;;;;;;;;5063967;28;19905;-70
2021/10/19 15:00:58;;;;;;;;;;;;;;;;;;5073461;28;19932;-70
2021/10/19 15:03:23;;;;;;;;;;;;;;;;;;5065754;28;19916;-70
2021/10/19 15:05:49;;;;;;;;;;;;;;;;;;5066781;28;19970;-70
2021/10/19 15:08:14;;;;;;;;;;;;;;;;;;5064396;28;19909;-69
2021/10/19 15:10:39;;;;;;;;;;;;;;;;;;5063600;28;19920;-71
2021/10/19 15:13:04;;;;;;;;;;;;;;;;;;5067048;28;19912;-70
2021/10/19 15:15:30;;;;;;;;;;;;;;;;;;5068367;28;19959;-71
2021/10/19 15:17:55;;;;;;;;;;;;;;;;;;5065223;28;19902;-70
2021/10/19 15:20:20;;;;;;;;;;;;;;;;;;5067500;28;19901;-70
2021/10/19 15:22:45;;;;;;;;;;;;;;;;;;5062197;28;19927;-70
2021/10/19 15:25:10;;;;;;;;;;;;;;;;;;5066055;28;19901;-70
2021/10/19 15:27:37;;;;;;;;;;;;;;;;;;5065900;28;19932;-71
2021/10/19 15:30:02;;;;;;;;;;;;;;;;;;5069081;28;19912;-71
2021/10/19 15:32:27;;;;;;;;;;;;;;;;;;5072428;28;19926;-72
2021/10/19 15:34:54;;;;;;;;;;;;;;;;;;5065429;28;19901;-71
2021/10/19 15:37:19;;;;;;;;;;;;;;;;;;5065666;28;19965;-70
2021/10/19 15:39:44;;;;;;;;;;;;;;;;;;5067798;28;19905;-71
2021/10/19 15:42:09;;;;;;;;;;;;;;;;;;5065556;28;20000;-71
2021/10/19 15:44:35;;;;;;;;;;;;;;;;;;5068077;28;19956;-71
2021/10/19 15:47:01;;;;;;;;;;;;;;;;;;5072810;28;20208;-71
2021/10/19 15:49:26;;;;;;;;;;;;;;;;;;5068400;28;19905;-71
2021/10/19 15:51:52;;;;;;;;;;;;;;;;;;5070213;28;19913;-71
2021/10/19 15:54:17;;;;;;;;;;;;;;;;;;5071653;28;19913;-70
2021/10/19 15:56:45;;;;;;;;;;;;;;;;;;5072973;28;19905;-70
2021/10/19 15:59:10;;;;;;;;;;;;;;;;;;5067861;28;19901;-71
2021/10/19 16:01:36;;;;;;;;;;;;;;;;;;5072833;28;19977;-71
2021/10/19 16:04:01;;;;;;;;;;;;;;;;;;5067574;28;19905;-70
2021/10/19 16:06:26;;;;;;;;;;;;;;;;;;5067699;28;20264;-71
2021/10/19 16:08:51;;;;;;;;;;;;;;;;;;5071614;28;20003;-72
2021/10/19 16:11:17;;;;;;;;;;;;;;;;;;5068592;28;19924;-69
2021/10/19 16:13:42;;;;;;;;;;;;;;;;;;5071267;28;19901;-71
2021/10/19 16:16:07;;;;;;;;;;;;;;;;;;5066229;28;19905;-72
2021/10/19 16:18:33;;;;;;;;;;;;;;;;;;5072674;28;19905;-72
2021/10/19 16:20:58;;;;;;;;;;;;;;;;;;5073122;28;19901;-71
2021/10/19 16:23:24;;;;;;;;;;;;;;;;;;5065830;28;19910;-71
2021/10/19 16:25:49;;;;;;;;;;;;;;;;;;5065143;28;19912;-71
2021/10/19 16:28:14;;;;;;;;;;;;;;;;;;5067895;28;19901;-71
2021/10/19 16:30:40;;;;;;;;;;;;;;;;;;5067264;28;19976;-72
2021/10/19 16:33:05;;;;;;;;;;;;;;;;;;5069698;28;19920;-73